KBFD/BFD METAR and TAF weather

Enter ICAO airport designator
Station Type Date Time Source
KBFD METAR 2022/11/27 07:53 UTC NOAA

KBFD 270753Z AUTO 18004KT 10SM CLR 05/M03 A2985 RMK AO2 SLP113 T00501033 TSNO $


Station Type Date Time Source
KBFD Decoded METAR 2022/11/27 07:53 UTC NOAA

BRADFORD REGIONAL AIRPORT, PA, United States (KBFD) 41-48N 078-38W 647M
Nov 27, 2022 - 02:53 AM EST / 2022.11.27 0753 UTC
Wind: from the S (180 degrees) at 5 MPH (4 KT):0
Visibility: 10 mile(s):0
Sky conditions: clear
Temperature: 41.0 F (5.0 C)
Dew Point: 26.1 F (-3.3 C)
Relative Humidity: 54%
Pressure (altimeter): 29.85 in. Hg (1010 hPa)
ob: KBFD 270753Z AUTO 18004KT 10SM CLR 05/M03 A2985 RMK AO2 SLP113 T00501033 TSNO
cycle: 8

Station Type Date Time Source
KBFD TAF 2022/11/27 06:36 UTC NOAA

TAF KBFD 270535Z 2706/2806 20003KT P6SM BKN250
FM271100 14004KT P6SM OVC100
FM271400 14005KT 6SM -RA BR SCT025 OVC050
FM271600 15006KT 4SM -RA BR OVC025 WS020/22050KT
FM272000 21006KT 4SM -RA BR OVC007 WS020/24035KT
FM280100 27012G22KT 5SM -DZ BR OVC006

Example: see airport list